Three Rivers — WDH2225 — position and weather

sailwx.info

Track history (hours):
 
Tides and Currents Weather Stations Pressure Air Temp Water Temp Dewpoint Dewpoint Depression Visibility Wind Speed Wind Dir Waves Ship Positions

Three Rivers

Owner: Higman Barge Lines, Inc., Orange, TX. More information available from US FCC via Universal Licensing System and Coast Guard Vessel Documentation Center.

Last reported at 2017-Nov-24 15:07 UTC. Time now 2017-Nov-24 16:39 UTC.
Position N 29°60' W 093°55'.

Length 23 m; draft 3 m.

Type: Towing. MMSI: 367595460.

Date/timePositionNaut miles runAvg speedWind from/ knotsBaromVisibWave heightAir tempDewpointWater temp
2017-Nov-24 15:07N 29°60' W 093°55'0 1.9
2017-Nov-24 15:00N 29°59' W 093°55'3 5.7
2017-Nov-24 14:30N 29°59' W 093°52'1 0.3
2017-Nov-24 11:59N 29°59' W 093°52'  
2017-Nov-16 14:47N 29°58' W 093°52'0 0.1
2017-Nov-16 14:14N 29°58' W 093°52'0 0.0
2017-Nov-16 13:51N 29°58' W 093°52'0 0.0
2017-Nov-16 13:30N 29°58' W 093°52'1 1.1
2017-Nov-16 12:33N 29°59' W 093°52'1 6.4
2017-Nov-16 12:22N 29°59' W 093°54'1 0.9
2017-Nov-16 11:15N 29°60' W 093°55'0 0.0
2017-Nov-16 11:00N 29°60' W 093°55'0 0.0
2017-Nov-16 10:30N 29°60' W 093°55'0 0.0
2017-Nov-16 10:00N 29°60' W 093°55'0 0.0
2017-Nov-16 09:29N 29°60' W 093°55'0 0.0
2017-Nov-16 08:22N 29°60' W 093°55'0 0.0
2017-Nov-16 04:06N 29°60' W 093°55'0 0.0
2017-Nov-16 03:14N 29°60' W 093°55'0 0.0
2017-Nov-16 03:00N 29°60' W 093°55'10 0.9
2017-Nov-15 16:00N 30°03' W 093°43'3 5.1
2017-Nov-15 15:23N 30°04' W 093°40'3 6.9
2017-Nov-15 15:00N 30°04' W 093°37'4 6.9
2017-Nov-15 14:29N 30°04' W 093°33'3 6.9
2017-Nov-15 14:00N 30°04' W 093°29'3 6.9
2017-Nov-15 13:30N 30°04' W 093°25'3 6.0
2017-Nov-15 13:00N 30°04' W 093°21'2 3.9
2017-Nov-15 12:30N 30°05' W 093°20'2 3.9
2017-Nov-15 12:00N 30°05' W 093°18'1 1.9
2017-Nov-15 11:30N 30°05' W 093°17'1 1.2
2017-Nov-15 11:00N 30°04' W 093°16'0 0.0
2017-Nov-15 10:30N 30°04' W 093°16'0 0.0
2017-Nov-15 10:00N 30°04' W 093°16'0 0.0
2017-Nov-15 09:30N 30°04' W 093°16'0 0.0
2017-Nov-15 09:00N 30°04' W 093°16'0 0.0
2017-Nov-15 08:30N 30°04' W 093°16'0 0.0
2017-Nov-15 08:00N 30°04' W 093°16'0 0.0
2017-Nov-15 07:30N 30°04' W 093°16'0 0.0
2017-Nov-15 07:00N 30°04' W 093°16'0 0.0
2017-Nov-15 06:30N 30°04' W 093°16'0 0.0
2017-Nov-15 06:00N 30°04' W 093°16'0 0.5
2017-Nov-15 05:30N 30°04' W 093°16'1 1.6
2017-Nov-15 05:00N 30°03' W 093°16'1 2.4
2017-Nov-15 04:30N 30°02' W 093°15'3 5.2
2017-Nov-15 04:00N 30°00' W 093°14'2 3.2
2017-Nov-15 03:30N 29°59' W 093°12'3 6.2
2017-Nov-15 03:00N 29°57' W 093°10'3 5.8
2017-Nov-15 02:30N 29°56' W 093°07'3 6.2
2017-Nov-15 01:59N 29°56' W 093°03'35 6.0
2017-Nov-14 20:08N 29°52' W 092°23'1 5.8
2017-Nov-14 19:54N 29°51' W 092°22'2 6.2
2017-Nov-14 19:30N 29°50' W 092°19'3 6.1
2017-Nov-14 19:00N 29°49' W 092°16'3 6.5
2017-Nov-14 18:30N 29°47' W 092°13'2 3.1
2017-Nov-14 18:00N 29°47' W 092°11'3 5.8
2017-Nov-14 17:30N 29°47' W 092°08'3 6.6
2017-Nov-14 17:00N 29°48' W 092°04'3 6.5
2017-Nov-14 16:30N 29°50' W 092°01'4 6.5
2017-Nov-14 15:57N 29°51' W 091°57'  
Track history (hours):
 
Tides and Currents Weather Stations Pressure Air Temp Water Temp Dewpoint Dewpoint Depression Visibility Wind Speed Wind Dir Waves Ship Positions

Three Rivers

Owner: Higman Barge Lines, Inc., Orange, TX. More information available from US FCC via Universal Licensing System and Coast Guard Vessel Documentation Center.

Last reported at 2017-Nov-24 15:07 UTC. Time now 2017-Nov-24 16:39 UTC.
Position N 29°60' W 093°55'.

Length 23 m; draft 3 m.

Type: Towing. MMSI: 367595460.

Date/timePositionNaut miles runAvg speedWind from/ knotsBaromVisibWave heightAir tempDewpointWater temp
2017-Nov-24 15:07N 29°60' W 093°55'0 1.9
2017-Nov-24 15:00N 29°59' W 093°55'3 5.7
2017-Nov-24 14:30N 29°59' W 093°52'1 0.3
2017-Nov-24 11:59N 29°59' W 093°52'  
2017-Nov-16 14:47N 29°58' W 093°52'0 0.1
2017-Nov-16 14:14N 29°58' W 093°52'0 0.0
2017-Nov-16 13:51N 29°58' W 093°52'0 0.0
2017-Nov-16 13:30N 29°58' W 093°52'1 1.1
2017-Nov-16 12:33N 29°59' W 093°52'1 6.4
2017-Nov-16 12:22N 29°59' W 093°54'1 0.9
2017-Nov-16 11:15N 29°60' W 093°55'0 0.0
2017-Nov-16 11:00N 29°60' W 093°55'0 0.0
2017-Nov-16 10:30N 29°60' W 093°55'0 0.0
2017-Nov-16 10:00N 29°60' W 093°55'0 0.0
2017-Nov-16 09:29N 29°60' W 093°55'0 0.0
2017-Nov-16 08:22N 29°60' W 093°55'0 0.0
2017-Nov-16 04:06N 29°60' W 093°55'0 0.0
2017-Nov-16 03:14N 29°60' W 093°55'0 0.0
2017-Nov-16 03:00N 29°60' W 093°55'10 0.9
2017-Nov-15 16:00N 30°03' W 093°43'3 5.1
2017-Nov-15 15:23N 30°04' W 093°40'3 6.9
2017-Nov-15 15:00N 30°04' W 093°37'4 6.9
2017-Nov-15 14:29N 30°04' W 093°33'3 6.9
2017-Nov-15 14:00N 30°04' W 093°29'3 6.9
2017-Nov-15 13:30N 30°04' W 093°25'3 6.0
2017-Nov-15 13:00N 30°04' W 093°21'2 3.9
2017-Nov-15 12:30N 30°05' W 093°20'2 3.9
2017-Nov-15 12:00N 30°05' W 093°18'1 1.9
2017-Nov-15 11:30N 30°05' W 093°17'1 1.2
2017-Nov-15 11:00N 30°04' W 093°16'0 0.0
2017-Nov-15 10:30N 30°04' W 093°16'0 0.0
2017-Nov-15 10:00N 30°04' W 093°16'0 0.0
2017-Nov-15 09:30N 30°04' W 093°16'0 0.0
2017-Nov-15 09:00N 30°04' W 093°16'0 0.0
2017-Nov-15 08:30N 30°04' W 093°16'0 0.0
2017-Nov-15 08:00N 30°04' W 093°16'0 0.0
2017-Nov-15 07:30N 30°04' W 093°16'0 0.0
2017-Nov-15 07:00N 30°04' W 093°16'0 0.0
2017-Nov-15 06:30N 30°04' W 093°16'0 0.0
2017-Nov-15 06:00N 30°04' W 093°16'0 0.5
2017-Nov-15 05:30N 30°04' W 093°16'1 1.6
2017-Nov-15 05:00N 30°03' W 093°16'1 2.4
2017-Nov-15 04:30N 30°02' W 093°15'3 5.2
2017-Nov-15 04:00N 30°00' W 093°14'2 3.2
2017-Nov-15 03:30N 29°59' W 093°12'3 6.2
2017-Nov-15 03:00N 29°57' W 093°10'3 5.8
2017-Nov-15 02:30N 29°56' W 093°07'3 6.2
2017-Nov-15 01:59N 29°56' W 093°03'35 6.0
2017-Nov-14 20:08N 29°52' W 092°23'1 5.8
2017-Nov-14 19:54N 29°51' W 092°22'2 6.2
2017-Nov-14 19:30N 29°50' W 092°19'3 6.1
2017-Nov-14 19:00N 29°49' W 092°16'3 6.5
2017-Nov-14 18:30N 29°47' W 092°13'2 3.1
2017-Nov-14 18:00N 29°47' W 092°11'3 5.8
2017-Nov-14 17:30N 29°47' W 092°08'3 6.6
2017-Nov-14 17:00N 29°48' W 092°04'3 6.5
2017-Nov-14 16:30N 29°50' W 092°01'4 6.5
2017-Nov-14 15:57N 29°51' W 091°57'  

Dump ship's entire track history